Time;durP1;ratioP1;P1;durP2;ratioP2;P2;SDS_P1;SDS_P2;PMS_P1;PMS_P2;Temp;Humidity;BMP_temperature;BMP_pressure;BME280_temperature;BME280_humidity;BME280_pressure;Samples;Min_cycle;Max_cycle;Signal;HPM_P1;HPM_P2
2022/03/03 00:00:25;;;;;;;;;;;22.10;27.40;;;;;;463154;257;1109;-39
2022/03/03 00:02:27;;;;;;;;;;;22.00;27.40;;;;;;462628;257;1179;-39
2022/03/03 00:04:28;;;;;;;;;;;22.00;27.40;;;;;;463246;257;1179;-39
2022/03/03 00:06:29;;;;;;;;;;;22.00;27.40;;;;;;463033;257;1361;-39
2022/03/03 00:08:30;;;;;;;;;;;22.10;27.50;;;;;;462959;257;1102;-39
2022/03/03 00:10:32;;;;;;;;;;;22.00;27.50;;;;;;462926;257;981;-39
2022/03/03 00:12:33;;;;;;;;;;;22.00;27.50;;;;;;462695;257;2208;-39
2022/03/03 00:14:34;;;;;;;;;;;22.00;27.50;;;;;;462765;257;1127;-39
2022/03/03 00:16:36;;;;;;;;;;;22.00;27.50;;;;;;462954;253;1226;-39
2022/03/03 00:18:37;;;;;;;;;;;22.00;27.50;;;;;;463148;257;1151;-39
2022/03/03 00:20:38;;;;;;;;;;;22.00;27.50;;;;;;463179;257;1445;-39
2022/03/03 00:22:40;;;;;;;;;;;22.00;27.40;;;;;;462731;257;1260;-39
2022/03/03 00:24:41;;;;;;;;;;;22.00;27.50;;;;;;462778;257;1086;-39
2022/03/03 00:26:42;;;;;;;;;;;22.00;27.40;;;;;;463114;257;1628;-39
2022/03/03 00:28:44;;;;;;;;;;;22.00;27.50;;;;;;462895;257;1115;-39
2022/03/03 00:30:45;;;;;;;;;;;22.00;27.40;;;;;;462950;257;1254;-39
2022/03/03 00:32:46;;;;;;;;;;;22.00;27.50;;;;;;462891;257;2217;-39
2022/03/03 00:34:48;;;;;;;;;;;22.00;27.40;;;;;;463237;257;1033;-39
2022/03/03 00:36:49;;;;;;;;;;;22.00;27.40;;;;;;462857;257;1367;-39
2022/03/03 00:38:51;;;;;;;;;;;22.00;27.40;;;;;;463186;257;1092;-39
2022/03/03 00:40:51;;;;;;;;;;;22.00;27.50;;;;;;462950;257;2154;-39
2022/03/03 00:42:53;;;;;;;;;;;22.00;27.50;;;;;;462973;257;1498;-39
2022/03/03 00:44:54;;;;;;;;;;;22.10;27.50;;;;;;462905;257;1313;-39
2022/03/03 00:46:55;;;;;;;;;;;22.00;27.50;;;;;;463210;257;1300;-39
2022/03/03 00:48:57;;;;;;;;;;;22.00;27.50;;;;;;462965;257;1220;-39
2022/03/03 00:51:00;;;;;;;;;;;22.10;27.50;;;;;;463083;257;1398;-39
2022/03/03 00:53:00;;;;;;;;;;;22.00;27.40;;;;;;462903;257;2378;-39
2022/03/03 00:55:01;;;;;;;;;;;22.00;27.50;;;;;;463176;257;1099;-39
2022/03/03 00:57:03;;;;;;;;;;;22.10;27.50;;;;;;462746;257;1166;-39
2022/03/03 00:59:04;;;;;;;;;;;22.10;27.50;;;;;;463241;257;1067;-39
2022/03/03 01:01:05;;;;;;;;;;;22.10;27.40;;;;;;462792;257;1280;-39
2022/03/03 01:03:06;;;;;;;;;;;22.00;27.40;;;;;;463229;257;1197;-39
2022/03/03 01:05:08;;;;;;;;;;;22.10;27.50;;;;;;463246;257;1060;-39
2022/03/03 01:07:09;;;;;;;;;;;22.10;27.50;;;;;;462730;257;1569;-39
2022/03/03 01:09:10;;;;;;;;;;;22.00;27.50;;;;;;463248;257;1059;-39
2022/03/03 01:11:12;;;;;;;;;;;22.10;27.50;;;;;;463069;257;1518;-39
2022/03/03 01:13:13;;;;;;;;;;;22.10;27.50;;;;;;462755;257;2202;-39
2022/03/03 01:15:14;;;;;;;;;;;22.10;27.50;;;;;;462968;257;1080;-39
2022/03/03 01:17:16;;;;;;;;;;;22.10;27.50;;;;;;462743;257;1342;-39
2022/03/03 01:19:17;;;;;;;;;;;22.10;27.50;;;;;;463011;257;967;-39
2022/03/03 01:21:18;;;;;;;;;;;22.10;27.50;;;;;;463002;257;1194;-39
2022/03/03 01:23:20;;;;;;;;;;;22.10;27.50;;;;;;462772;257;1238;-39
2022/03/03 01:25:21;;;;;;;;;;;22.10;27.50;;;;;;462824;257;1081;-39
2022/03/03 01:27:22;;;;;;;;;;;22.10;27.50;;;;;;462758;257;1243;-39
2022/03/03 01:29:24;;;;;;;;;;;22.10;27.50;;;;;;463257;257;1606;-39
2022/03/03 01:31:25;;;;;;;;;;;22.10;27.50;;;;;;463236;257;1724;-39
2022/03/03 01:33:26;;;;;;;;;;;22.10;27.50;;;;;;463210;257;2128;-39
2022/03/03 01:35:27;;;;;;;;;;;22.10;27.50;;;;;;463182;257;1066;-39
2022/03/03 01:37:29;;;;;;;;;;;22.10;27.50;;;;;;462843;257;1268;-39
2022/03/03 01:39:30;;;;;;;;;;;22.10;27.50;;;;;;463209;257;993;-39
2022/03/03 01:41:31;;;;;;;;;;;22.10;27.50;;;;;;463197;257;1246;-39
2022/03/03 01:43:33;;;;;;;;;;;22.10;27.50;;;;;;462858;257;1057;-39
2022/03/03 01:45:34;;;;;;;;;;;22.10;27.50;;;;;;462809;257;1161;-39
2022/03/03 01:47:35;;;;;;;;;;;22.10;27.50;;;;;;463149;257;1144;-39
2022/03/03 01:49:37;;;;;;;;;;;22.10;27.50;;;;;;463245;257;1064;-39
2022/03/03 01:51:38;;;;;;;;;;;22.10;27.50;;;;;;462905;257;1361;-39
2022/03/03 01:53:39;;;;;;;;;;;22.10;27.50;;;;;;462980;257;2219;-39
2022/03/03 01:55:41;;;;;;;;;;;22.10;27.50;;;;;;462919;257;1189;-39
2022/03/03 01:57:42;;;;;;;;;;;22.10;27.50;;;;;;463118;257;1461;-39
2022/03/03 01:59:43;;;;;;;;;;;22.10;27.50;;;;;;463242;257;1091;-39
2022/03/03 02:01:45;;;;;;;;;;;22.10;27.50;;;;;;463018;257;1177;-39
2022/03/03 02:03:46;;;;;;;;;;;22.10;27.50;;;;;;462842;257;1088;-39
2022/03/03 02:05:47;;;;;;;;;;;22.10;27.40;;;;;;463213;257;1554;-39
2022/03/03 02:07:48;;;;;;;;;;;22.10;27.40;;;;;;463039;257;1735;-39
2022/03/03 02:09:50;;;;;;;;;;;22.10;27.50;;;;;;463163;257;1191;-39
2022/03/03 02:11:51;;;;;;;;;;;22.10;27.50;;;;;;462967;257;1400;-39
2022/03/03 02:13:52;;;;;;;;;;;22.10;27.50;;;;;;462779;257;2199;-39
2022/03/03 02:15:54;;;;;;;;;;;22.20;27.50;;;;;;462812;257;1498;-39
2022/03/03 02:17:55;;;;;;;;;;;22.10;27.50;;;;;;462901;257;1225;-39
2022/03/03 02:19:57;;;;;;;;;;;22.10;27.50;;;;;;462816;257;1188;-39
2022/03/03 02:21:58;;;;;;;;;;;22.10;27.50;;;;;;462854;257;1539;-39
2022/03/03 02:23:59;;;;;;;;;;;22.10;27.50;;;;;;462993;257;1205;-39
2022/03/03 02:26:00;;;;;;;;;;;22.10;27.50;;;;;;463147;257;1451;-39
2022/03/03 02:28:02;;;;;;;;;;;22.10;27.50;;;;;;462800;257;1234;-39
2022/03/03 02:30:03;;;;;;;;;;;22.10;27.60;;;;;;463232;257;1090;-39
2022/03/03 02:32:05;;;;;;;;;;;22.10;27.50;;;;;;462852;257;1132;-39
2022/03/03 02:34:06;;;;;;;;;;;22.10;27.50;;;;;;462779;257;2207;-39
2022/03/03 02:36:07;;;;;;;;;;;22.10;27.50;;;;;;462856;257;1339;-39
2022/03/03 02:38:09;;;;;;;;;;;22.10;27.50;;;;;;462800;257;1476;-39
2022/03/03 02:40:10;;;;;;;;;;;22.10;27.50;;;;;;463218;257;1084;-39
2022/03/03 02:42:11;;;;;;;;;;;22.10;27.50;;;;;;462810;257;1353;-39
2022/03/03 02:44:13;;;;;;;;;;;22.10;27.50;;;;;;463182;257;1180;-39
2022/03/03 02:46:14;;;;;;;;;;;22.10;27.50;;;;;;463149;257;1221;-39
2022/03/03 02:48:15;;;;;;;;;;;22.10;27.50;;;;;;463099;257;1203;-39
2022/03/03 02:50:17;;;;;;;;;;;22.10;27.50;;;;;;463255;257;1070;-39
2022/03/03 02:52:18;;;;;;;;;;;22.20;27.50;;;;;;462928;257;1150;-39
2022/03/03 02:54:19;;;;;;;;;;;22.10;27.50;;;;;;462983;257;2186;-39
2022/03/03 02:56:20;;;;;;;;;;;22.10;27.50;;;;;;463160;257;1351;-39
2022/03/03 02:58:22;;;;;;;;;;;22.20;27.50;;;;;;462778;257;1253;-39
2022/03/03 03:00:23;;;;;;;;;;;22.10;27.50;;;;;;463204;257;1184;-39
2022/03/03 03:02:24;;;;;;;;;;;22.10;27.50;;;;;;462738;257;1158;-39
2022/03/03 03:04:26;;;;;;;;;;;22.10;27.50;;;;;;463198;257;1067;-39
2022/03/03 03:06:27;;;;;;;;;;;22.10;27.50;;;;;;463073;257;1329;-39
2022/03/03 03:08:28;;;;;;;;;;;22.10;27.50;;;;;;462769;257;1236;-39
2022/03/03 03:10:30;;;;;;;;;;;22.10;27.50;;;;;;462831;257;1125;-39
2022/03/03 03:12:31;;;;;;;;;;;22.10;27.60;;;;;;462990;257;1150;-39
2022/03/03 03:14:32;;;;;;;;;;;22.10;27.50;;;;;;463179;257;2127;-39
2022/03/03 03:16:34;;;;;;;;;;;22.10;27.50;;;;;;462905;257;1419;-39
2022/03/03 03:18:35;;;;;;;;;;;22.10;27.60;;;;;;462764;257;1106;-39
2022/03/03 03:20:36;;;;;;;;;;;22.10;27.60;;;;;;462784;257;1315;-39
2022/03/03 03:22:38;;;;;;;;;;;22.10;27.60;;;;;;462696;257;1706;-39
2022/03/03 03:24:39;;;;;;;;;;;22.10;27.60;;;;;;463003;257;1168;-39
2022/03/03 03:26:40;;;;;;;;;;;22.10;27.60;;;;;;462696;257;1379;-39
2022/03/03 03:28:42;;;;;;;;;;;22.10;27.60;;;;;;463221;257;1198;-39
2022/03/03 03:30:43;;;;;;;;;;;22.10;27.60;;;;;;463206;257;1356;-39
2022/03/03 03:32:44;;;;;;;;;;;22.10;27.60;;;;;;463151;257;1236;-39
2022/03/03 03:34:46;;;;;;;;;;;22.10;27.60;;;;;;463065;257;2183;-39
2022/03/03 03:36:47;;;;;;;;;;;22.10;27.60;;;;;;462910;257;1356;-39
2022/03/03 03:38:48;;;;;;;;;;;22.10;27.60;;;;;;463064;257;1064;-39
2022/03/03 03:40:49;;;;;;;;;;;22.10;27.60;;;;;;462788;257;1360;-39
2022/03/03 03:42:51;;;;;;;;;;;22.10;27.60;;;;;;462985;257;1231;-39
2022/03/03 03:44:52;;;;;;;;;;;22.10;27.60;;;;;;462986;257;1080;-39
2022/03/03 03:46:53;;;;;;;;;;;22.10;27.60;;;;;;462685;257;1283;-39
2022/03/03 03:48:55;;;;;;;;;;;22.10;27.60;;;;;;462791;257;1065;-39
2022/03/03 03:50:56;;;;;;;;;;;22.10;27.60;;;;;;463180;257;1415;-39
2022/03/03 03:52:57;;;;;;;;;;;22.10;27.50;;;;;;463207;257;1093;-39
2022/03/03 03:54:59;;;;;;;;;;;22.10;27.50;;;;;;462961;257;2132;-40
2022/03/03 03:57:00;;;;;;;;;;;22.10;27.60;;;;;;462941;257;1503;-39
2022/03/03 03:59:01;;;;;;;;;;;22.20;27.60;;;;;;463213;257;1066;-39
2022/03/03 04:01:03;;;;;;;;;;;22.10;27.50;;;;;;462759;257;1161;-39
2022/03/03 04:03:04;;;;;;;;;;;22.10;27.50;;;;;;462758;257;1010;-39
2022/03/03 04:05:05;;;;;;;;;;;22.20;27.60;;;;;;463193;257;976;-39
2022/03/03 04:07:06;;;;;;;;;;;22.10;27.50;;;;;;462909;257;1242;-39
2022/03/03 04:09:08;;;;;;;;;;;22.10;27.50;;;;;;463068;257;1090;-39
2022/03/03 04:11:09;;;;;;;;;;;22.20;27.60;;;;;;462847;257;1469;-39
2022/03/03 04:13:10;;;;;;;;;;;22.10;27.50;;;;;;463215;257;1161;-39
2022/03/03 04:15:12;;;;;;;;;;;22.10;27.60;;;;;;463099;257;2195;-39
2022/03/03 04:17:13;;;;;;;;;;;22.10;27.60;;;;;;462759;257;1721;-39
2022/03/03 04:19:14;;;;;;;;;;;22.10;27.60;;;;;;463247;257;1060;-39
2022/03/03 04:21:16;;;;;;;;;;;22.10;27.60;;;;;;463153;257;1213;-39
2022/03/03 04:23:19;;;;;;;;;;;22.10;27.60;;;;;;463069;257;1234;-39
2022/03/03 04:25:18;;;;;;;;;;;22.10;27.60;;;;;;462965;257;1468;-39
2022/03/03 04:27:20;;;;;;;;;;;22.10;27.60;;;;;;463152;257;1212;-39
2022/03/03 04:29:21;;;;;;;;;;;22.10;27.60;;;;;;462729;257;2069;-39
2022/03/03 04:31:22;;;;;;;;;;;22.20;27.60;;;;;;463128;257;1148;-39
2022/03/03 04:33:24;;;;;;;;;;;22.20;27.60;;;;;;463010;257;1102;-39
2022/03/03 04:35:25;;;;;;;;;;;22.20;27.60;;;;;;462807;257;2136;-39
2022/03/03 04:37:26;;;;;;;;;;;22.20;27.60;;;;;;463148;257;1215;-39
2022/03/03 04:39:28;;;;;;;;;;;22.20;27.60;;;;;;463168;257;1075;-39
2022/03/03 04:41:29;;;;;;;;;;;22.20;27.50;;;;;;462760;257;1190;-39
2022/03/03 04:43:31;;;;;;;;;;;22.20;27.50;;;;;;463181;257;1197;-39
2022/03/03 04:45:32;;;;;;;;;;;22.20;27.60;;;;;;463185;257;1457;-39
2022/03/03 04:47:33;;;;;;;;;;;22.10;27.50;;;;;;462952;257;1135;-39
2022/03/03 04:49:35;;;;;;;;;;;22.10;27.60;;;;;;462807;257;1126;-39
2022/03/03 04:51:37;;;;;;;;;;;22.10;27.60;;;;;;462947;257;1386;-39
2022/03/03 04:53:38;;;;;;;;;;;22.20;27.60;;;;;;462998;257;1049;-39
2022/03/03 04:55:39;;;;;;;;;;;22.10;27.60;;;;;;462735;257;2135;-39
2022/03/03 04:57:41;;;;;;;;;;;22.20;27.60;;;;;;463131;257;1220;-39
2022/03/03 04:59:42;;;;;;;;;;;22.20;27.60;;;;;;463187;257;1066;-39
2022/03/03 05:01:43;;;;;;;;;;;22.20;27.60;;;;;;462985;257;1196;-39
2022/03/03 05:03:44;;;;;;;;;;;22.20;27.60;;;;;;463116;257;1256;-39
2022/03/03 05:05:46;;;;;;;;;;;22.10;27.50;;;;;;463033;257;1164;-39
2022/03/03 05:07:47;;;;;;;;;;;22.10;27.50;;;;;;462680;257;1149;-39
2022/03/03 05:09:48;;;;;;;;;;;22.20;27.60;;;;;;463208;257;1142;-39
2022/03/03 05:11:50;;;;;;;;;;;22.20;27.60;;;;;;462724;257;1268;-39
2022/03/03 05:13:51;;;;;;;;;;;22.10;27.60;;;;;;462866;257;1108;-39
2022/03/03 05:15:52;;;;;;;;;;;22.20;27.60;;;;;;462759;257;2207;-39
2022/03/03 05:17:54;;;;;;;;;;;22.10;27.60;;;;;;463027;257;1225;-39
2022/03/03 05:19:57;;;;;;;;;;;22.20;27.60;;;;;;462712;257;1025;-39
2022/03/03 05:21:56;;;;;;;;;;;22.20;27.60;;;;;;462660;256;2062;-39
2022/03/03 05:23:58;;;;;;;;;;;22.20;27.60;;;;;;462716;257;1068;-39
2022/03/03 05:25:59;;;;;;;;;;;22.20;27.60;;;;;;462996;257;1250;-39
2022/03/03 05:28:00;;;;;;;;;;;22.10;27.60;;;;;;462990;257;1174;-39
2022/03/03 05:30:02;;;;;;;;;;;22.20;27.60;;;;;;462895;257;1114;-39
2022/03/03 05:32:04;;;;;;;;;;;22.20;27.60;;;;;;462682;257;1277;-39
2022/03/03 05:34:04;;;;;;;;;;;22.10;27.60;;;;;;463084;257;2610;-39
2022/03/03 05:36:06;;;;;;;;;;;22.20;27.60;;;;;;462554;253;2140;-39
2022/03/03 05:38:07;;;;;;;;;;;22.10;27.60;;;;;;462975;257;1312;-39
2022/03/03 05:40:08;;;;;;;;;;;22.20;27.60;;;;;;462701;257;1099;-39
2022/03/03 05:42:09;;;;;;;;;;;22.20;27.60;;;;;;462591;257;1323;-39
2022/03/03 05:44:11;;;;;;;;;;;22.10;27.60;;;;;;462702;257;1037;-39
2022/03/03 05:46:12;;;;;;;;;;;22.10;27.60;;;;;;463022;257;1408;-39
2022/03/03 05:48:14;;;;;;;;;;;22.20;27.60;;;;;;462768;257;1196;-39
2022/03/03 05:50:15;;;;;;;;;;;22.20;27.60;;;;;;462771;257;1044;-39
2022/03/03 05:52:16;;;;;;;;;;;22.20;27.60;;;;;;462512;257;1485;-39
2022/03/03 05:54:18;;;;;;;;;;;22.20;27.60;;;;;;462731;257;1066;-39
2022/03/03 05:56:19;;;;;;;;;;;22.20;27.60;;;;;;462406;257;2206;-39
2022/03/03 05:58:20;;;;;;;;;;;22.10;27.60;;;;;;462661;257;1078;-39
2022/03/03 06:00:22;;;;;;;;;;;22.10;27.60;;;;;;462747;257;1116;-39
2022/03/03 06:02:23;;;;;;;;;;;22.20;27.60;;;;;;462533;257;1239;-39
2022/03/03 06:04:24;;;;;;;;;;;22.20;27.60;;;;;;462944;257;1046;-39
2022/03/03 06:06:26;;;;;;;;;;;22.20;27.60;;;;;;462744;257;1216;-39
2022/03/03 06:08:30;;;;;;;;;;;22.20;27.60;;;;;;462781;257;1078;-39
2022/03/03 06:10:28;;;;;;;;;;;22.20;27.60;;;;;;462359;257;2305;-39
2022/03/03 06:12:30;;;;;;;;;;;22.20;27.60;;;;;;462545;257;1345;-39
2022/03/03 06:14:31;;;;;;;;;;;22.20;27.60;;;;;;462532;257;1098;-39
2022/03/03 06:16:32;;;;;;;;;;;22.20;27.60;;;;;;462653;257;2147;-39
2022/03/03 06:18:33;;;;;;;;;;;22.20;27.60;;;;;;462597;257;1071;-39
2022/03/03 06:20:35;;;;;;;;;;;22.20;27.60;;;;;;462532;257;1091;-39
2022/03/03 06:22:37;;;;;;;;;;;22.20;27.60;;;;;;462572;257;1228;-39
2022/03/03 06:24:38;;;;;;;;;;;22.10;27.60;;;;;;462935;257;1164;-39
2022/03/03 06:26:39;;;;;;;;;;;22.20;27.60;;;;;;462625;257;1162;-39
2022/03/03 06:28:40;;;;;;;;;;;22.20;27.60;;;;;;462732;257;1426;-39
2022/03/03 06:30:42;;;;;;;;;;;22.10;27.60;;;;;;462509;257;1140;-39
2022/03/03 06:32:44;;;;;;;;;;;22.10;27.60;;;;;;462353;257;1249;-39
2022/03/03 06:34:45;;;;;;;;;;;22.20;27.60;;;;;;462974;257;1109;-39
2022/03/03 06:36:46;;;;;;;;;;;22.20;27.60;;;;;;462782;257;2198;-39
2022/03/03 06:38:47;;;;;;;;;;;22.20;27.60;;;;;;462333;257;1264;-39
2022/03/03 06:40:49;;;;;;;;;;;22.20;27.60;;;;;;462225;257;1581;-39
2022/03/03 06:42:50;;;;;;;;;;;22.20;27.60;;;;;;462175;257;2559;-39
2022/03/03 06:44:52;;;;;;;;;;;22.10;27.60;;;;;;462363;257;1413;-39
2022/03/03 06:46:52;;;;;;;;;;;22.10;27.60;;;;;;462213;257;1822;-39
2022/03/03 06:48:54;;;;;;;;;;;22.20;27.60;;;;;;462419;257;1191;-39
2022/03/03 06:50:55;;;;;;;;;;;22.20;27.60;;;;;;462695;257;1566;-39
2022/03/03 06:52:56;;;;;;;;;;;22.20;27.60;;;;;;462428;257;1550;-39
2022/03/03 06:54:58;;;;;;;;;;;22.20;27.60;;;;;;462591;257;2152;-39
2022/03/03 06:56:59;;;;;;;;;;;22.20;27.70;;;;;;462417;257;1379;-39
2022/03/03 06:59:00;;;;;;;;;;;22.10;27.60;;;;;;462843;257;1388;-39
2022/03/03 07:01:03;;;;;;;;;;;22.10;27.60;;;;;;462465;257;1433;-39
2022/03/03 07:03:03;;;;;;;;;;;22.10;27.60;;;;;;462320;258;1848;-39
2022/03/03 07:05:04;;;;;;;;;;;22.10;27.60;;;;;;462687;257;1219;-39
2022/03/03 07:07:06;;;;;;;;;;;22.20;27.60;;;;;;462334;257;1259;-39
2022/03/03 07:09:08;;;;;;;;;;;22.20;27.70;;;;;;462457;257;1185;-39
2022/03/03 07:11:08;;;;;;;;;;;22.20;27.60;;;;;;462366;257;2116;-40
2022/03/03 07:13:09;;;;;;;;;;;22.20;27.60;;;;;;462409;257;1201;-40
2022/03/03 07:15:11;;;;;;;;;;;22.20;27.60;;;;;;462508;257;2215;-40
2022/03/03 07:17:12;;;;;;;;;;;22.20;27.60;;;;;;462264;257;1229;-40
2022/03/03 07:19:13;;;;;;;;;;;22.10;27.60;;;;;;462648;257;1196;-40
2022/03/03 07:21:15;;;;;;;;;;;22.20;27.60;;;;;;462321;257;1242;-40
2022/03/03 07:23:16;;;;;;;;;;;22.20;27.60;;;;;;462364;257;1356;-40
2022/03/03 07:25:17;;;;;;;;;;;22.20;27.50;;;;;;462360;257;1533;-40
2022/03/03 07:27:19;;;;;;;;;;;22.20;27.50;;;;;;462292;257;1263;-40
2022/03/03 07:29:21;;;;;;;;;;;22.20;27.50;;;;;;462512;257;1264;-40
2022/03/03 07:31:22;;;;;;;;;;;22.20;27.50;;;;;;462531;257;1212;-40
2022/03/03 07:33:24;;;;;;;;;;;22.20;27.50;;;;;;462581;257;1216;-40
2022/03/03 07:35:25;;;;;;;;;;;22.20;27.50;;;;;;462605;257;2201;-40
2022/03/03 07:37:27;;;;;;;;;;;22.20;27.50;;;;;;462316;257;1224;-40
2022/03/03 07:39:31;;;;;;;;;;;22.20;27.50;;;;;;462247;257;1203;-40
2022/03/03 07:41:30;;;;;;;;;;;22.20;27.40;;;;;;462044;257;2143;-40
2022/03/03 07:43:31;;;;;;;;;;;22.20;27.50;;;;;;462386;257;1232;-40
2022/03/03 07:45:32;;;;;;;;;;;22.20;27.50;;;;;;462307;257;1341;-40
2022/03/03 07:47:34;;;;;;;;;;;22.20;27.50;;;;;;462178;257;1300;-40
2022/03/03 07:49:35;;;;;;;;;;;22.20;27.40;;;;;;462090;257;1121;-40
2022/03/03 07:51:36;;;;;;;;;;;22.20;27.40;;;;;;462283;257;1262;-40
2022/03/03 07:53:37;;;;;;;;;;;22.30;27.40;;;;;;462274;257;1150;-40
2022/03/03 07:55:39;;;;;;;;;;;22.30;27.40;;;;;;462275;257;2204;-40
2022/03/03 07:57:40;;;;;;;;;;;22.20;27.40;;;;;;462245;257;1291;-40
2022/03/03 07:59:41;;;;;;;;;;;22.30;27.40;;;;;;462221;257;1277;-40
2022/03/03 08:01:43;;;;;;;;;;;22.30;27.40;;;;;;462008;257;1314;-40
2022/03/03 08:03:44;;;;;;;;;;;22.30;27.40;;;;;;462032;257;1241;-40
2022/03/03 08:05:46;;;;;;;;;;;22.30;27.30;;;;;;462059;257;1098;-40
2022/03/03 08:07:48;;;;;;;;;;;22.30;27.30;;;;;;461865;257;1244;-40
2022/03/03 08:09:48;;;;;;;;;;;22.40;27.30;;;;;;461937;257;2244;-40
2022/03/03 08:11:51;;;;;;;;;;;22.40;27.30;;;;;;461893;257;1351;-40
2022/03/03 08:13:52;;;;;;;;;;;22.30;27.30;;;;;;462157;257;2063;-40
2022/03/03 08:15:53;;;;;;;;;;;22.40;27.30;;;;;;462146;257;2144;-40
2022/03/03 08:17:54;;;;;;;;;;;22.30;27.30;;;;;;462112;257;1262;-40
2022/03/03 08:19:55;;;;;;;;;;;22.30;27.30;;;;;;462125;257;1162;-40
2022/03/03 08:21:57;;;;;;;;;;;22.30;27.30;;;;;;462019;257;1489;-40
2022/03/03 08:24:00;;;;;;;;;;;22.40;27.30;;;;;;462136;257;1127;-40
2022/03/03 08:26:00;;;;;;;;;;;22.30;27.30;;;;;;462014;257;2291;-40
2022/03/03 08:28:02;;;;;;;;;;;22.30;27.40;;;;;;461986;257;1327;-40
2022/03/03 08:30:02;;;;;;;;;;;22.30;27.40;;;;;;462225;257;2233;-40
2022/03/03 08:32:04;;;;;;;;;;;22.30;27.40;;;;;;462015;257;1233;-40
2022/03/03 08:34:12;;;;;;;;;;;22.30;27.30;;;;;;462062;257;1072;-40
2022/03/03 08:36:08;;;;;;;;;;;22.30;27.40;;;;;;461762;257;2236;-40
2022/03/03 08:38:09;;;;;;;;;;;22.30;27.40;;;;;;462130;257;1157;-40
2022/03/03 08:40:10;;;;;;;;;;;22.30;27.40;;;;;;462047;257;1087;-40
2022/03/03 08:42:13;;;;;;;;;;;22.30;27.40;;;;;;462321;257;1387;-40
2022/03/03 08:44:12;;;;;;;;;;;22.30;27.40;;;;;;462148;257;2084;-40
2022/03/03 08:46:14;;;;;;;;;;;22.30;27.40;;;;;;462022;257;1345;-40
2022/03/03 08:48:16;;;;;;;;;;;22.30;27.40;;;;;;462058;257;1100;-40
2022/03/03 08:50:17;;;;;;;;;;;22.30;27.40;;;;;;461907;257;1352;-40
2022/03/03 08:52:18;;;;;;;;;;;22.30;27.40;;;;;;461892;257;1317;-40
2022/03/03 08:54:19;;;;;;;;;;;22.20;27.40;;;;;;461937;257;1165;-40
2022/03/03 08:56:22;;;;;;;;;;;22.20;27.40;;;;;;462069;257;2125;-40
2022/03/03 08:58:22;;;;;;;;;;;22.30;27.40;;;;;;462178;257;2304;-40
2022/03/03 09:00:23;;;;;;;;;;;22.30;27.40;;;;;;462156;257;1123;-40
2022/03/03 09:02:25;;;;;;;;;;;22.30;27.40;;;;;;462079;257;1242;-40
2022/03/03 09:04:26;;;;;;;;;;;22.30;27.40;;;;;;462030;257;1160;-40
2022/03/03 09:06:28;;;;;;;;;;;22.30;27.40;;;;;;461848;257;1525;-40
2022/03/03 09:08:29;;;;;;;;;;;22.30;27.40;;;;;;462550;257;1382;-40
2022/03/03 09:10:30;;;;;;;;;;;22.30;27.40;;;;;;462298;257;1142;-40
2022/03/03 09:12:31;;;;;;;;;;;22.30;27.40;;;;;;462556;257;1187;-40
2022/03/03 09:14:33;;;;;;;;;;;22.30;27.40;;;;;;461985;257;1263;-40
2022/03/03 09:16:34;;;;;;;;;;;22.30;27.40;;;;;;461961;257;2132;-40
2022/03/03 09:18:36;;;;;;;;;;;22.30;27.40;;;;;;462079;257;1134;-40
2022/03/03 09:20:37;;;;;;;;;;;22.30;27.40;;;;;;462052;257;1345;-40
2022/03/03 09:22:38;;;;;;;;;;;22.20;27.40;;;;;;462548;257;1488;-41
2022/03/03 09:24:39;;;;;;;;;;;22.20;27.40;;;;;;462122;257;1259;-40
2022/03/03 09:26:41;;;;;;;;;;;22.30;27.40;;;;;;461867;257;1547;-40
2022/03/03 09:28:42;;;;;;;;;;;22.20;27.50;;;;;;461965;257;1442;-40
2022/03/03 09:30:43;;;;;;;;;;;22.20;27.50;;;;;;461996;257;1325;-40
2022/03/03 09:32:45;;;;;;;;;;;22.20;27.40;;;;;;462424;257;1125;-40
2022/03/03 09:34:46;;;;;;;;;;;22.20;27.50;;;;;;461988;257;1276;-40
2022/03/03 09:36:47;;;;;;;;;;;22.20;27.50;;;;;;461860;257;2151;-40
2022/03/03 09:38:49;;;;;;;;;;;22.20;27.50;;;;;;462007;257;1273;-40
2022/03/03 09:40:50;;;;;;;;;;;22.20;27.50;;;;;;461904;257;1528;-40
2022/03/03 09:42:52;;;;;;;;;;;22.10;27.50;;;;;;461966;257;1234;-40
2022/03/03 09:44:53;;;;;;;;;;;22.20;27.50;;;;;;461903;257;1236;-40
2022/03/03 09:46:55;;;;;;;;;;;22.20;27.50;;;;;;461905;257;1234;-40
2022/03/03 09:48:56;;;;;;;;;;;22.20;27.50;;;;;;461897;257;2053;-40
2022/03/03 09:50:58;;;;;;;;;;;22.20;27.50;;;;;;462050;257;1095;-40
2022/03/03 09:52:59;;;;;;;;;;;22.10;27.50;;;;;;462102;257;1196;-40
2022/03/03 09:55:01;;;;;;;;;;;22.10;27.50;;;;;;462040;257;1176;-40
2022/03/03 09:57:02;;;;;;;;;;;22.20;27.50;;;;;;462358;257;2381;-40
2022/03/03 09:59:03;;;;;;;;;;;22.20;27.50;;;;;;462047;257;1291;-40
2022/03/03 10:01:04;;;;;;;;;;;22.20;27.50;;;;;;461902;257;1244;-40
2022/03/03 10:03:09;;;;;;;;;;;22.20;27.50;;;;;;462015;257;1254;-40
2022/03/03 10:05:10;;;;;;;;;;;22.30;27.40;;;;;;462324;257;2135;-40
2022/03/03 10:07:11;;;;;;;;;;;22.30;27.40;;;;;;462274;257;1167;-40
2022/03/03 10:09:12;;;;;;;;;;;22.30;27.40;;;;;;462539;257;1119;-40
2022/03/03 10:11:14;;;;;;;;;;;22.30;27.40;;;;;;461943;257;1276;-40
2022/03/03 10:13:16;;;;;;;;;;;22.30;27.40;;;;;;461918;255;1897;-40
2022/03/03 10:15:17;;;;;;;;;;;22.30;27.30;;;;;;461965;257;2065;-40
2022/03/03 10:17:18;;;;;;;;;;;22.40;27.40;;;;;;461825;256;2323;-40
2022/03/03 10:19:20;;;;;;;;;;;22.30;27.40;;;;;;461978;257;1089;-40
2022/03/03 10:21:21;;;;;;;;;;;22.30;27.40;;;;;;461809;257;1374;-40
2022/03/03 10:23:22;;;;;;;;;;;22.30;27.40;;;;;;462670;257;902;-40
2022/03/03 10:25:24;;;;;;;;;;;22.40;27.50;;;;;;462441;257;1350;-40
2022/03/03 10:27:25;;;;;;;;;;;22.40;27.50;;;;;;462177;257;1400;-40
2022/03/03 10:29:26;;;;;;;;;;;22.40;27.50;;;;;;461982;257;1680;-40
2022/03/03 10:31:28;;;;;;;;;;;22.40;27.50;;;;;;461956;257;1450;-40
2022/03/03 10:33:29;;;;;;;;;;;22.40;27.50;;;;;;462320;257;986;-40
2022/03/03 10:35:31;;;;;;;;;;;22.40;27.50;;;;;;462144;257;1401;-40
2022/03/03 10:37:33;;;;;;;;;;;22.40;27.50;;;;;;462104;257;2190;-40
2022/03/03 10:39:33;;;;;;;;;;;22.40;27.50;;;;;;462024;257;2608;-40
2022/03/03 10:41:35;;;;;;;;;;;22.40;27.60;;;;;;462019;257;1147;-40
2022/03/03 10:43:36;;;;;;;;;;;22.40;27.60;;;;;;461988;257;1181;-40
2022/03/03 10:45:37;;;;;;;;;;;22.40;27.60;;;;;;461907;257;1222;-40
2022/03/03 10:47:38;;;;;;;;;;;22.40;27.60;;;;;;461777;257;1163;-40
2022/03/03 10:49:40;;;;;;;;;;;22.40;27.60;;;;;;461865;257;1133;-40
2022/03/03 10:51:41;;;;;;;;;;;22.40;27.70;;;;;;461975;257;1369;-40
2022/03/03 10:53:43;;;;;;;;;;;22.40;27.60;;;;;;462060;257;1080;-40
2022/03/03 10:55:44;;;;;;;;;;;22.40;27.70;;;;;;462035;257;1250;-40
2022/03/03 10:57:45;;;;;;;;;;;22.50;27.70;;;;;;462008;257;2214;-40
2022/03/03 10:59:46;;;;;;;;;;;22.40;27.70;;;;;;462097;257;1117;-40
2022/03/03 11:01:48;;;;;;;;;;;22.50;27.70;;;;;;461915;257;1361;-40
2022/03/03 11:03:53;;;;;;;;;;;22.50;27.60;;;;;;461790;257;1250;-40
2022/03/03 11:05:54;;;;;;;;;;;22.50;27.70;;;;;;461821;257;1818;-40
2022/03/03 11:07:56;;;;;;;;;;;22.50;27.70;;;;;;461801;257;2651;-40
2022/03/03 11:09:56;;;;;;;;;;;22.50;27.60;;;;;;461820;257;2034;-40
2022/03/03 11:11:58;;;;;;;;;;;22.50;27.60;;;;;;462007;257;1317;-40
2022/03/03 11:13:59;;;;;;;;;;;22.50;27.60;;;;;;461984;257;1298;-40
2022/03/03 11:16:00;;;;;;;;;;;22.60;27.60;;;;;;462074;257;1293;-40
2022/03/03 11:18:02;;;;;;;;;;;22.50;27.60;;;;;;462005;257;2207;-40
2022/03/03 11:20:03;;;;;;;;;;;22.50;27.60;;;;;;462058;257;1091;-40
2022/03/03 11:22:04;;;;;;;;;;;22.50;27.60;;;;;;462208;257;1324;-40
2022/03/03 11:24:06;;;;;;;;;;;22.60;27.60;;;;;;462243;257;1089;-40
2022/03/03 11:26:07;;;;;;;;;;;22.60;27.60;;;;;;462014;257;1344;-40
2022/03/03 11:28:08;;;;;;;;;;;22.60;27.60;;;;;;462081;257;1081;-40
2022/03/03 11:30:10;;;;;;;;;;;22.50;27.60;;;;;;462064;257;1110;-40
2022/03/03 11:32:11;;;;;;;;;;;22.50;27.60;;;;;;462300;257;1221;-40
2022/03/03 11:34:12;;;;;;;;;;;22.50;27.60;;;;;;461943;257;1440;-40
2022/03/03 11:36:13;;;;;;;;;;;22.60;27.50;;;;;;462047;257;1160;-40
2022/03/03 11:38:15;;;;;;;;;;;22.50;27.60;;;;;;462238;257;2191;-40
2022/03/03 11:40:16;;;;;;;;;;;22.50;27.60;;;;;;462140;257;1118;-40
2022/03/03 11:42:17;;;;;;;;;;;22.50;27.60;;;;;;462044;257;1269;-40
2022/03/03 11:44:19;;;;;;;;;;;22.50;27.70;;;;;;462018;257;1087;-40
2022/03/03 11:46:20;;;;;;;;;;;22.50;27.70;;;;;;462056;257;1306;-40
2022/03/03 11:48:22;;;;;;;;;;;22.50;27.70;;;;;;462297;257;1125;-40
2022/03/03 11:50:24;;;;;;;;;;;22.60;27.80;;;;;;462080;257;1215;-40
2022/03/03 11:52:24;;;;;;;;;;;22.60;27.70;;;;;;461961;257;2150;-40
2022/03/03 11:54:26;;;;;;;;;;;22.60;27.70;;;;;;462054;257;1137;-40
2022/03/03 11:56:27;;;;;;;;;;;22.70;27.70;;;;;;461936;257;1233;-40